sensor_id;sensor_type;location;lat;lon;timestamp;P1;P2;P0
48155;PMS5003;35568;48.104;11.782;2023-10-19T00:00:24;18;18;
48155;PMS5003;35568;48.104;11.782;2023-10-19T00:02:51;18;18;
48155;PMS5003;35568;48.104;11.782;2023-10-19T00:05:18;19;19;
48155;PMS5003;35568;48.104;11.782;2023-10-19T00:07:46;18;17;
48155;PMS5003;35568;48.104;11.782;2023-10-19T00:10:13;17;17;
48155;PMS5003;35568;48.104;11.782;2023-10-19T00:12:40;21;21;
48155;PMS5003;35568;48.104;11.782;2023-10-19T00:15:07;17;16;
48155;PMS5003;35568;48.104;11.782;2023-10-19T00:17:34;16;15;
48155;PMS5003;35568;48.104;11.782;2023-10-19T00:20:01;16;16;
48155;PMS5003;35568;48.104;11.782;2023-10-19T00:22:28;21;21;
48155;PMS5003;35568;48.104;11.782;2023-10-19T00:24:55;19;18;
48155;PMS5003;35568;48.104;11.782;2023-10-19T00:27:22;17;16;
48155;PMS5003;35568;48.104;11.782;2023-10-19T00:29:49;18;17;
48155;PMS5003;35568;48.104;11.782;2023-10-19T00:32:16;19;19;
48155;PMS5003;35568;48.104;11.782;2023-10-19T00:34:43;21;20;
48155;PMS5003;35568;48.104;11.782;2023-10-19T00:37:11;18;18;
48155;PMS5003;35568;48.104;11.782;2023-10-19T00:39:38;17;16;
48155;PMS5003;35568;48.104;11.782;2023-10-19T00:42:05;14;14;
48155;PMS5003;35568;48.104;11.782;2023-10-19T00:44:32;18;16;
48155;PMS5003;35568;48.104;11.782;2023-10-19T00:46:59;18;15;
48155;PMS5003;35568;48.104;11.782;2023-10-19T00:49:27;15;15;
48155;PMS5003;35568;48.104;11.782;2023-10-19T00:51:55;14;14;
48155;PMS5003;35568;48.104;11.782;2023-10-19T00:54:25;17;17;
48155;PMS5003;35568;48.104;11.782;2023-10-19T00:56:55;18;18;
48155;PMS5003;35568;48.104;11.782;2023-10-19T00:59:24;18;18;
48155;PMS5003;35568;48.104;11.782;2023-10-19T01:01:53;19;18;
48155;PMS5003;35568;48.104;11.782;2023-10-19T01:04:21;15;15;
48155;PMS5003;35568;48.104;11.782;2023-10-19T01:06:48;20;19;
48155;PMS5003;35568;48.104;11.782;2023-10-19T01:09:15;17;16;
48155;PMS5003;35568;48.104;11.782;2023-10-19T01:11:43;18;16;
48155;PMS5003;35568;48.104;11.782;2023-10-19T01:14:18;18;17;
48155;PMS5003;35568;48.104;11.782;2023-10-19T01:16:45;19;18;
48155;PMS5003;35568;48.104;11.782;2023-10-19T01:19:12;15;15;
48155;PMS5003;35568;48.104;11.782;2023-10-19T01:21:39;18;17;
48155;PMS5003;35568;48.104;11.782;2023-10-19T01:24:06;20;19;
48155;PMS5003;35568;48.104;11.782;2023-10-19T01:26:34;17;16;
48155;PMS5003;35568;48.104;11.782;2023-10-19T01:29:01;15;14;
48155;PMS5003;35568;48.104;11.782;2023-10-19T01:31:28;15;15;
48155;PMS5003;35568;48.104;11.782;2023-10-19T01:33:55;19;18;
48155;PMS5003;35568;48.104;11.782;2023-10-19T01:36:23;24;22;
48155;PMS5003;35568;48.104;11.782;2023-10-19T01:38:51;21;20;
48155;PMS5003;35568;48.104;11.782;2023-10-19T01:41:19;18;18;
48155;PMS5003;35568;48.104;11.782;2023-10-19T01:43:47;18;18;
48155;PMS5003;35568;48.104;11.782;2023-10-19T01:46:15;18;18;
48155;PMS5003;35568;48.104;11.782;2023-10-19T01:48:44;22;22;
48155;PMS5003;35568;48.104;11.782;2023-10-19T01:51:12;22;20;
48155;PMS5003;35568;48.104;11.782;2023-10-19T01:53:39;19;16;
48155;PMS5003;35568;48.104;11.782;2023-10-19T01:56:07;21;20;
48155;PMS5003;35568;48.104;11.782;2023-10-19T01:58:34;18;18;
48155;PMS5003;35568;48.104;11.782;2023-10-19T02:01:01;18;18;
48155;PMS5003;35568;48.104;11.782;2023-10-19T02:03:28;18;17;
48155;PMS5003;35568;48.104;11.782;2023-10-19T02:05:57;19;18;
48155;PMS5003;35568;48.104;11.782;2023-10-19T02:08:24;17;16;
48155;PMS5003;35568;48.104;11.782;2023-10-19T02:10:51;21;19;
48155;PMS5003;35568;48.104;11.782;2023-10-19T02:13:18;16;15;
48155;PMS5003;35568;48.104;11.782;2023-10-19T02:15:45;14;14;
48155;PMS5003;35568;48.104;11.782;2023-10-19T02:18:12;18;18;
48155;PMS5003;35568;48.104;11.782;2023-10-19T02:20:40;16;15;
48155;PMS5003;35568;48.104;11.782;2023-10-19T02:23:07;17;16;
48155;PMS5003;35568;48.104;11.782;2023-10-19T02:25:35;19;18;
48155;PMS5003;35568;48.104;11.782;2023-10-19T02:28:03;19;19;
48155;PMS5003;35568;48.104;11.782;2023-10-19T02:30:30;16;16;
48155;PMS5003;35568;48.104;11.782;2023-10-19T02:32:57;19;18;
48155;PMS5003;35568;48.104;11.782;2023-10-19T02:35:24;14;14;
48155;PMS5003;35568;48.104;11.782;2023-10-19T02:37:51;19;19;
48155;PMS5003;35568;48.104;11.782;2023-10-19T02:40:18;22;21;
48155;PMS5003;35568;48.104;11.782;2023-10-19T02:42:46;22;21;
48155;PMS5003;35568;48.104;11.782;2023-10-19T02:45:14;16;16;
48155;PMS5003;35568;48.104;11.782;2023-10-19T02:47:42;17;15;
48155;PMS5003;35568;48.104;11.782;2023-10-19T02:50:11;15;15;
48155;PMS5003;35568;48.104;11.782;2023-10-19T02:52:39;16;16;
48155;PMS5003;35568;48.104;11.782;2023-10-19T02:55:07;21;19;
48155;PMS5003;35568;48.104;11.782;2023-10-19T02:57:35;18;16;
48155;PMS5003;35568;48.104;11.782;2023-10-19T03:03:00;18;17;
48155;PMS5003;35568;48.104;11.782;2023-10-19T03:05:27;19;18;
48155;PMS5003;35568;48.104;11.782;2023-10-19T03:07:54;18;17;
48155;PMS5003;35568;48.104;11.782;2023-10-19T03:10:21;15;14;
48155;PMS5003;35568;48.104;11.782;2023-10-19T03:12:48;20;19;
48155;PMS5003;35568;48.104;11.782;2023-10-19T03:15:15;17;16;
48155;PMS5003;35568;48.104;11.782;2023-10-19T03:17:43;17;16;
48155;PMS5003;35568;48.104;11.782;2023-10-19T03:20:10;18;17;
48155;PMS5003;35568;48.104;11.782;2023-10-19T03:22:38;21;18;
48155;PMS5003;35568;48.104;11.782;2023-10-19T03:25:06;14;14;
48155;PMS5003;35568;48.104;11.782;2023-10-19T03:27:34;17;14;
48155;PMS5003;35568;48.104;11.782;2023-10-19T03:30:01;16;16;
48155;PMS5003;35568;48.104;11.782;2023-10-19T03:32:29;18;17;
48155;PMS5003;35568;48.104;11.782;2023-10-19T03:34:56;17;17;
48155;PMS5003;35568;48.104;11.782;2023-10-19T03:37:23;19;17;
48155;PMS5003;35568;48.104;11.782;2023-10-19T03:39:51;17;16;
48155;PMS5003;35568;48.104;11.782;2023-10-19T03:42:18;15;15;
48155;PMS5003;35568;48.104;11.782;2023-10-19T03:44:45;17;17;
48155;PMS5003;35568;48.104;11.782;2023-10-19T03:47:12;18;18;
48155;PMS5003;35568;48.104;11.782;2023-10-19T03:49:40;16;15;
48155;PMS5003;35568;48.104;11.782;2023-10-19T03:52:07;13;13;
48155;PMS5003;35568;48.104;11.782;2023-10-19T03:54:34;14;14;
48155;PMS5003;35568;48.104;11.782;2023-10-19T03:57:02;14;13;
48155;PMS5003;35568;48.104;11.782;2023-10-19T03:59:29;19;18;
48155;PMS5003;35568;48.104;11.782;2023-10-19T04:01:57;14;14;
48155;PMS5003;35568;48.104;11.782;2023-10-19T04:04:24;14;14;
48155;PMS5003;35568;48.104;11.782;2023-10-19T04:06:52;16;14;
48155;PMS5003;35568;48.104;11.782;2023-10-19T04:09:19;13;11;
48155;PMS5003;35568;48.104;11.782;2023-10-19T04:11:46;12;12;
48155;PMS5003;35568;48.104;11.782;2023-10-19T04:14:14;12;11;
48155;PMS5003;35568;48.104;11.782;2023-10-19T04:16:41;16;14;
48155;PMS5003;35568;48.104;11.782;2023-10-19T04:19:09;14;14;
48155;PMS5003;35568;48.104;11.782;2023-10-19T04:21:36;17;16;
48155;PMS5003;35568;48.104;11.782;2023-10-19T04:24:03;16;16;
48155;PMS5003;35568;48.104;11.782;2023-10-19T04:26:30;16;15;
48155;PMS5003;35568;48.104;11.782;2023-10-19T04:28:58;17;16;
48155;PMS5003;35568;48.104;11.782;2023-10-19T04:31:25;18;18;
48155;PMS5003;35568;48.104;11.782;2023-10-19T04:33:52;13;12;
48155;PMS5003;35568;48.104;11.782;2023-10-19T04:36:19;19;18;
48155;PMS5003;35568;48.104;11.782;2023-10-19T04:38:46;24;21;
48155;PMS5003;35568;48.104;11.782;2023-10-19T04:41:13;14;13;
48155;PMS5003;35568;48.104;11.782;2023-10-19T04:43:40;15;14;
48155;PMS5003;35568;48.104;11.782;2023-10-19T04:46:08;13;12;
48155;PMS5003;35568;48.104;11.782;2023-10-19T04:48:37;11;11;
48155;PMS5003;35568;48.104;11.782;2023-10-19T04:51:05;16;14;
48155;PMS5003;35568;48.104;11.782;2023-10-19T04:53:32;16;16;
48155;PMS5003;35568;48.104;11.782;2023-10-19T04:56:00;18;17;
48155;PMS5003;35568;48.104;11.782;2023-10-19T04:58:27;19;17;
48155;PMS5003;35568;48.104;11.782;2023-10-19T05:00:54;15;15;
48155;PMS5003;35568;48.104;11.782;2023-10-19T05:03:22;15;15;
48155;PMS5003;35568;48.104;11.782;2023-10-19T05:05:49;19;18;
48155;PMS5003;35568;48.104;11.782;2023-10-19T05:08:16;18;17;
48155;PMS5003;35568;48.104;11.782;2023-10-19T05:10:44;13;12;
48155;PMS5003;35568;48.104;11.782;2023-10-19T05:13:12;14;14;
48155;PMS5003;35568;48.104;11.782;2023-10-19T05:15:39;16;15;
48155;PMS5003;35568;48.104;11.782;2023-10-19T05:18:06;20;19;
48155;PMS5003;35568;48.104;11.782;2023-10-19T05:20:32;32;31;
48155;PMS5003;35568;48.104;11.782;2023-10-19T05:23:00;30;28;
48155;PMS5003;35568;48.104;11.782;2023-10-19T05:25:27;26;25;
48155;PMS5003;35568;48.104;11.782;2023-10-19T05:27:54;21;20;
48155;PMS5003;35568;48.104;11.782;2023-10-19T05:30:22;15;15;
48155;PMS5003;35568;48.104;11.782;2023-10-19T05:32:50;16;16;
48155;PMS5003;35568;48.104;11.782;2023-10-19T05:35:17;17;15;
48155;PMS5003;35568;48.104;11.782;2023-10-19T05:37:45;18;15;
48155;PMS5003;35568;48.104;11.782;2023-10-19T05:40:12;17;16;
48155;PMS5003;35568;48.104;11.782;2023-10-19T05:42:39;23;23;
48155;PMS5003;35568;48.104;11.782;2023-10-19T05:45:06;20;20;
48155;PMS5003;35568;48.104;11.782;2023-10-19T05:47:34;23;22;
48155;PMS5003;35568;48.104;11.782;2023-10-19T05:50:01;24;24;
48155;PMS5003;35568;48.104;11.782;2023-10-19T05:52:27;25;22;
48155;PMS5003;35568;48.104;11.782;2023-10-19T05:54:54;19;19;
48155;PMS5003;35568;48.104;11.782;2023-10-19T05:57:22;17;17;
48155;PMS5003;35568;48.104;11.782;2023-10-19T05:59:49;22;21;
48155;PMS5003;35568;48.104;11.782;2023-10-19T06:02:16;21;19;
48155;PMS5003;35568;48.104;11.782;2023-10-19T06:04:43;22;22;
48155;PMS5003;35568;48.104;11.782;2023-10-19T06:07:10;23;21;
48155;PMS5003;35568;48.104;11.782;2023-10-19T06:09:40;16;15;
48155;PMS5003;35568;48.104;11.782;2023-10-19T06:12:09;44;40;
48155;PMS5003;35568;48.104;11.782;2023-10-19T06:14:37;24;24;
48155;PMS5003;35568;48.104;11.782;2023-10-19T06:17:06;16;16;
48155;PMS5003;35568;48.104;11.782;2023-10-19T06:19:33;16;15;
48155;PMS5003;35568;48.104;11.782;2023-10-19T06:22:00;15;14;
48155;PMS5003;35568;48.104;11.782;2023-10-19T06:24:26;15;15;
48155;PMS5003;35568;48.104;11.782;2023-10-19T06:26:53;16;15;
48155;PMS5003;35568;48.104;11.782;2023-10-19T06:29:20;17;14;
48155;PMS5003;35568;48.104;11.782;2023-10-19T06:31:49;18;18;
48155;PMS5003;35568;48.104;11.782;2023-10-19T06:34:16;16;16;
48155;PMS5003;35568;48.104;11.782;2023-10-19T06:36:44;13;12;
48155;PMS5003;35568;48.104;11.782;2023-10-19T06:39:11;16;15;
48155;PMS5003;35568;48.104;11.782;2023-10-19T06:41:38;14;14;
48155;PMS5003;35568;48.104;11.782;2023-10-19T06:44:05;14;12;
48155;PMS5003;35568;48.104;11.782;2023-10-19T06:46:33;18;17;
48155;PMS5003;35568;48.104;11.782;2023-10-19T06:49:00;11;11;
48155;PMS5003;35568;48.104;11.782;2023-10-19T06:51:28;12;12;
48155;PMS5003;35568;48.104;11.782;2023-10-19T06:53:55;16;15;
48155;PMS5003;35568;48.104;11.782;2023-10-19T06:56:22;15;14;
48155;PMS5003;35568;48.104;11.782;2023-10-19T06:58:49;16;16;
48155;PMS5003;35568;48.104;11.782;2023-10-19T07:01:16;13;13;
48155;PMS5003;35568;48.104;11.782;2023-10-19T07:03:43;10;10;
48155;PMS5003;35568;48.104;11.782;2023-10-19T07:06:10;12;12;
48155;PMS5003;35568;48.104;11.782;2023-10-19T07:08:38;8;8;
48155;PMS5003;35568;48.104;11.782;2023-10-19T07:11:05;9;9;
48155;PMS5003;35568;48.104;11.782;2023-10-19T07:13:32;11;11;
48155;PMS5003;35568;48.104;11.782;2023-10-19T07:15:59;12;10;
48155;PMS5003;35568;48.104;11.782;2023-10-19T07:18:27;10;10;
48155;PMS5003;35568;48.104;11.782;2023-10-19T07:20:54;9;9;
48155;PMS5003;35568;48.104;11.782;2023-10-19T07:23:21;10;10;
48155;PMS5003;35568;48.104;11.782;2023-10-19T07:25:48;9;9;
48155;PMS5003;35568;48.104;11.782;2023-10-19T07:28:16;6;6;
48155;PMS5003;35568;48.104;11.782;2023-10-19T07:30:43;7;7;
48155;PMS5003;35568;48.104;11.782;2023-10-19T07:33:11;7;7;
48155;PMS5003;35568;48.104;11.782;2023-10-19T07:35:40;7;7;
48155;PMS5003;35568;48.104;11.782;2023-10-19T07:38:07;8;8;
48155;PMS5003;35568;48.104;11.782;2023-10-19T07:40:34;7;7;
48155;PMS5003;35568;48.104;11.782;2023-10-19T07:43:02;9;9;
48155;PMS5003;35568;48.104;11.782;2023-10-19T07:45:29;7;6;
48155;PMS5003;35568;48.104;11.782;2023-10-19T07:47:57;7;7;
48155;PMS5003;35568;48.104;11.782;2023-10-19T07:50:25;7;6;
48155;PMS5003;35568;48.104;11.782;2023-10-19T07:52:52;4;4;
48155;PMS5003;35568;48.104;11.782;2023-10-19T07:55:20;7;6;
48155;PMS5003;35568;48.104;11.782;2023-10-19T07:57:48;7;7;
48155;PMS5003;35568;48.104;11.782;2023-10-19T08:00:16;7;7;
48155;PMS5003;35568;48.104;11.782;2023-10-19T08:02:44;6;5;
48155;PMS5003;35568;48.104;11.782;2023-10-19T08:05:12;7;7;
48155;PMS5003;35568;48.104;11.782;2023-10-19T08:07:39;8;8;
48155;PMS5003;35568;48.104;11.782;2023-10-19T08:10:07;8;8;
48155;PMS5003;35568;48.104;11.782;2023-10-19T08:12:36;12;11;
48155;PMS5003;35568;48.104;11.782;2023-10-19T08:15:04;7;7;
48155;PMS5003;35568;48.104;11.782;2023-10-19T08:17:31;6;6;
48155;PMS5003;35568;48.104;11.782;2023-10-19T08:19:59;6;6;
48155;PMS5003;35568;48.104;11.782;2023-10-19T08:22:26;6;5;
48155;PMS5003;35568;48.104;11.782;2023-10-19T08:24:53;5;5;
48155;PMS5003;35568;48.104;11.782;2023-10-19T08:27:19;6;6;
48155;PMS5003;35568;48.104;11.782;2023-10-19T08:29:47;5;4;
48155;PMS5003;35568;48.104;11.782;2023-10-19T08:32:14;4;4;
48155;PMS5003;35568;48.104;11.782;2023-10-19T08:34:41;3;3;
48155;PMS5003;35568;48.104;11.782;2023-10-19T08:37:09;5;4;
48155;PMS5003;35568;48.104;11.782;2023-10-19T08:39:38;2;2;
48155;PMS5003;35568;48.104;11.782;2023-10-19T08:42:06;3;3;
48155;PMS5003;35568;48.104;11.782;2023-10-19T08:44:34;3;3;
48155;PMS5003;35568;48.104;11.782;2023-10-19T08:47:03;4;4;
48155;PMS5003;35568;48.104;11.782;2023-10-19T08:49:31;3;3;
48155;PMS5003;35568;48.104;11.782;2023-10-19T08:51:58;5;5;
48155;PMS5003;35568;48.104;11.782;2023-10-19T08:54:26;3;3;
48155;PMS5003;35568;48.104;11.782;2023-10-19T08:56:54;2;2;
48155;PMS5003;35568;48.104;11.782;2023-10-19T08:59:21;4;4;
48155;PMS5003;35568;48.104;11.782;2023-10-19T09:01:48;3;3;
48155;PMS5003;35568;48.104;11.782;2023-10-19T09:04:15;3;3;
48155;PMS5003;35568;48.104;11.782;2023-10-19T09:06:42;4;3;
48155;PMS5003;35568;48.104;11.782;2023-10-19T09:09:09;1;1;
48155;PMS5003;35568;48.104;11.782;2023-10-19T09:11:37;4;4;
48155;PMS5003;35568;48.104;11.782;2023-10-19T09:14:04;4;4;
48155;PMS5003;35568;48.104;11.782;2023-10-19T09:16:32;3;3;
48155;PMS5003;35568;48.104;11.782;2023-10-19T09:19:00;2;2;
48155;PMS5003;35568;48.104;11.782;2023-10-19T09:21:26;3;3;
48155;PMS5003;35568;48.104;11.782;2023-10-19T09:23:54;2;2;
48155;PMS5003;35568;48.104;11.782;2023-10-19T09:26:23;4;4;
48155;PMS5003;35568;48.104;11.782;2023-10-19T09:28:51;7;7;
48155;PMS5003;35568;48.104;11.782;2023-10-19T09:31:19;5;4;
48155;PMS5003;35568;48.104;11.782;2023-10-19T09:33:47;4;4;
48155;PMS5003;35568;48.104;11.782;2023-10-19T09:36:14;5;4;
48155;PMS5003;35568;48.104;11.782;2023-10-19T09:38:45;3;3;
48155;PMS5003;35568;48.104;11.782;2023-10-19T09:41:13;5;5;
48155;PMS5003;35568;48.104;11.782;2023-10-19T09:43:43;5;5;
48155;PMS5003;35568;48.104;11.782;2023-10-19T09:46:12;4;4;
48155;PMS5003;35568;48.104;11.782;2023-10-19T09:48:46;5;4;
48155;PMS5003;35568;48.104;11.782;2023-10-19T09:51:14;5;5;
48155;PMS5003;35568;48.104;11.782;2023-10-19T09:53:45;6;6;
48155;PMS5003;35568;48.104;11.782;2023-10-19T09:56:17;4;4;
48155;PMS5003;35568;48.104;11.782;2023-10-19T09:58:54;5;5;
48155;PMS5003;35568;48.104;11.782;2023-10-19T10:01:25;5;5;
48155;PMS5003;35568;48.104;11.782;2023-10-19T10:03:54;6;6;
